createdAt,value
2018-11-20T00:00:30.956Z,16.80
2018-11-20T00:03:37.589Z,9.80
2018-11-20T00:06:41.511Z,14.30
2018-11-20T00:09:26.553Z,15.60
2018-11-20T00:12:08.230Z,16.43
2018-11-20T00:14:52.984Z,13.97
2018-11-20T00:17:35.461Z,15.50
2018-11-20T00:20:22.685Z,15.10
2018-11-20T00:23:13.923Z,15.13
2018-11-20T00:26:05.349Z,18.37
2018-11-20T00:29:02.810Z,16.50
2018-11-20T00:31:49.637Z,16.47
2018-11-20T00:34:38.012Z,17.80
2018-11-20T00:37:18.311Z,19.43
2018-11-20T00:40:05.275Z,13.47
2018-11-20T00:42:52.218Z,18.13
2018-11-20T00:45:58.576Z,17.43
2018-11-20T00:48:45.751Z,17.10
2018-11-20T00:51:43.069Z,18.75
2018-11-20T00:54:30.306Z,19.90
2018-11-20T00:57:11.024Z,20.73
2018-11-20T00:59:53.560Z,18.07
2018-11-20T01:02:41.027Z,12.77
2018-11-20T01:05:35.286Z,16.90
2018-11-20T01:08:29.807Z,15.70
2018-11-20T01:11:27.476Z,23.97
2018-11-20T01:14:14.454Z,18.93
2018-11-20T01:17:12.780Z,17.83
2018-11-20T01:20:10.602Z,19.70
2018-11-20T01:23:11.243Z,13.13
2018-11-20T01:25:51.095Z,14.37
2018-11-20T01:28:39.929Z,15.90
2018-11-20T01:31:31.763Z,16.60
2018-11-20T01:34:23.096Z,13.30
2018-11-20T01:37:14.458Z,17.93
2018-11-20T01:39:59.343Z,13.53
2018-11-20T01:42:46.921Z,13.03
2018-11-20T01:45:33.830Z,20.00
2018-11-20T01:48:40.576Z,14.07
2018-11-20T01:51:29.640Z,19.83
2018-11-20T01:54:17.108Z,22.17
2018-11-20T01:57:04.084Z,20.60
2018-11-20T01:59:58.007Z,21.37
2018-11-20T02:02:49.361Z,25.13
2018-11-20T02:05:49.627Z,18.03
2018-11-20T02:08:37.124Z,20.97
2018-11-20T02:11:24.528Z,20.60
2018-11-20T02:14:20.521Z,18.27
2018-11-20T02:17:20.436Z,22.43
2018-11-20T02:20:11.568Z,23.17
2018-11-20T02:23:05.500Z,22.10
2018-11-20T02:25:53.155Z,23.47
2018-11-20T02:28:44.525Z,15.70
2018-11-20T02:31:31.799Z,25.87
2018-11-20T02:34:25.493Z,25.23
2018-11-20T02:37:13.668Z,24.67
2018-11-20T02:40:00.612Z,18.50
2018-11-20T02:42:49.084Z,18.70
2018-11-20T02:45:36.339Z,23.83
2018-11-20T02:48:40.054Z,17.30
2018-11-20T02:51:27.639Z,20.37
2018-11-20T02:54:16.641Z,20.10
2018-11-20T02:57:16.899Z,20.90
2018-11-20T03:00:08.177Z,16.43
2018-11-20T03:03:05.520Z,19.13
2018-11-20T03:05:53.864Z,20.90
2018-11-20T03:08:45.533Z,20.20
2018-11-20T03:11:28.166Z,25.60
2018-11-20T03:14:25.632Z,21.60
2018-11-20T03:17:26.110Z,25.00
2018-11-20T03:20:12.970Z,20.20
2018-11-20T03:23:04.046Z,20.77
2018-11-20T03:26:18.206Z,26.07
2018-11-20T03:29:13.436Z,23.17
2018-11-20T03:32:04.832Z,19.43
2018-11-20T03:34:47.059Z,21.27
2018-11-20T03:37:34.640Z,20.40
2018-11-20T03:40:26.821Z,23.93
2018-11-20T03:43:14.977Z,31.80
2018-11-20T03:46:04.645Z,27.43
2018-11-20T03:48:53.434Z,21.40
2018-11-20T03:51:47.572Z,14.13
2018-11-20T03:54:34.873Z,24.23
2018-11-20T03:57:22.056Z,21.73
2018-11-20T04:00:06.237Z,22.67
2018-11-20T04:03:12.736Z,17.57
2018-11-20T04:06:03.872Z,23.35
2018-11-20T04:08:41.084Z,20.40
2018-11-20T04:11:19.748Z,15.47
2018-11-20T04:14:08.635Z,25.47
2018-11-20T04:16:55.799Z,22.50
2018-11-20T04:19:46.071Z,14.53
2018-11-20T04:22:33.249Z,26.97
2018-11-20T04:25:33.675Z,30.37
2018-11-20T04:28:19.740Z,28.80
2018-11-20T04:31:42.666Z,20.07
2018-11-20T04:34:28.073Z,21.53
2018-11-20T04:37:21.810Z,27.47
2018-11-20T04:40:16.176Z,25.73
2018-11-20T04:43:14.937Z,27.03
2018-11-20T04:46:07.280Z,21.60
2018-11-20T04:48:54.379Z,21.57
2018-11-20T04:51:58.018Z,23.70
2018-11-20T04:54:45.490Z,25.13
2018-11-20T04:57:32.404Z,30.17
2018-11-20T05:00:32.927Z,27.57
2018-11-20T05:03:20.356Z,24.47
2018-11-20T05:06:07.338Z,26.40
2018-11-20T05:08:54.467Z,31.10
2018-11-20T05:11:42.314Z,32.40
2018-11-20T05:14:43.025Z,30.63
2018-11-20T05:17:28.207Z,20.17
2018-11-20T05:20:16.004Z,30.63
2018-11-20T05:23:12.259Z,20.90
2018-11-20T05:26:03.945Z,22.20
2018-11-20T05:28:51.069Z,28.30
2018-11-20T05:31:42.338Z,27.57
2018-11-20T05:34:30.987Z,32.87
2018-11-20T05:37:31.824Z,31.13
2018-11-20T05:40:19.140Z,30.17
2018-11-20T05:43:01.510Z,27.13
2018-11-20T05:45:49.047Z,25.57
2018-11-20T05:48:37.804Z,31.37
2018-11-20T05:51:26.585Z,40.27
2018-11-20T05:54:09.981Z,35.70
2018-11-20T05:56:58.720Z,32.20
2018-11-20T05:59:53.669Z,36.07
2018-11-20T06:03:00.214Z,30.53
2018-11-20T06:05:47.592Z,33.40
2018-11-20T06:08:48.216Z,34.30
2018-11-20T06:11:35.499Z,31.87
2018-11-20T06:14:26.909Z,35.77
2018-11-20T06:17:14.746Z,28.52
2018-11-20T06:20:09.151Z,26.90
2018-11-20T06:22:50.687Z,31.33
2018-11-20T06:25:37.683Z,29.20
2018-11-20T06:28:25.604Z,39.53
2018-11-20T06:31:16.783Z,43.07
2018-11-20T06:34:05.873Z,49.40
2018-11-20T06:37:06.397Z,37.47
2018-11-20T06:39:58.069Z,38.57
2018-11-20T06:42:45.548Z,33.27
2018-11-20T06:45:42.979Z,36.65
2018-11-20T06:48:31.377Z,26.40
2018-11-20T06:51:22.245Z,39.30
2018-11-20T06:54:13.846Z,35.73
2018-11-20T06:57:00.935Z,41.00
2018-11-20T07:00:08.043Z,40.03
2018-11-20T07:02:54.867Z,32.27
2018-11-20T07:05:37.316Z,37.97
2018-11-20T07:08:44.106Z,30.10
2018-11-20T07:11:30.976Z,33.47
2018-11-20T07:14:27.514Z,37.13
2018-11-20T07:17:36.429Z,36.60
2018-11-20T07:20:21.531Z,36.00
2018-11-20T07:23:10.994Z,30.53
2018-11-20T07:26:03.107Z,32.13
2018-11-20T07:28:57.435Z,32.83
2018-11-20T07:31:48.560Z,38.73
2018-11-20T07:34:35.705Z,38.27
2018-11-20T07:37:36.038Z,38.47
2018-11-20T07:40:43.720Z,34.93
2018-11-20T07:43:35.226Z,35.40
2018-11-20T07:46:21.916Z,43.90
2018-11-20T07:49:16.753Z,29.63
2018-11-20T07:52:17.245Z,42.88
2018-11-20T07:55:04.559Z,35.73
2018-11-20T07:58:02.370Z,39.10
2018-11-20T08:00:56.776Z,41.47
2018-11-20T08:03:34.540Z,41.57
2018-11-20T08:06:21.875Z,36.47
2018-11-20T08:08:59.269Z,30.27
2018-11-20T08:11:47.684Z,34.47
2018-11-20T08:14:48.326Z,44.67
2018-11-20T08:17:30.885Z,41.40
2018-11-20T08:20:17.815Z,40.77
2018-11-20T08:23:05.260Z,37.47
2018-11-20T08:25:56.678Z,50.90
2018-11-20T08:28:57.217Z,42.10
2018-11-20T08:31:51.623Z,39.30
2018-11-20T08:34:38.614Z,40.67
2018-11-20T08:37:32.788Z,39.83
2018-11-20T08:40:19.767Z,40.80
2018-11-20T08:43:06.750Z,46.23
2018-11-20T08:46:04.206Z,50.73
2018-11-20T08:48:53.070Z,29.93
2018-11-20T08:51:50.350Z,36.77
2018-11-20T08:54:41.899Z,45.20
2018-11-20T08:57:42.041Z,38.13
2018-11-20T09:00:33.089Z,32.63
2018-11-20T09:03:24.554Z,48.33
2018-11-20T09:06:12.961Z,33.60
2018-11-20T09:09:00.030Z,40.97
2018-11-20T09:11:48.491Z,36.57
2018-11-20T09:14:49.022Z,43.80
2018-11-20T09:17:37.812Z,35.07
2018-11-20T09:20:32.678Z,33.00
2018-11-20T09:23:26.960Z,32.73
2018-11-20T09:26:14.084Z,42.53
2018-11-20T09:29:01.557Z,39.50
2018-11-20T09:31:48.869Z,37.80
2018-11-20T09:34:43.523Z,35.70
2018-11-20T09:37:28.716Z,43.53
2018-11-20T09:40:51.773Z,42.63
2018-11-20T09:43:41.394Z,26.90
2018-11-20T09:46:33.437Z,37.10
2018-11-20T09:49:21.796Z,37.20
2018-11-20T09:52:16.227Z,39.58
2018-11-20T09:55:03.293Z,41.27
2018-11-20T09:57:50.431Z,37.33
2018-11-20T10:00:37.561Z,36.47
2018-11-20T10:03:35.024Z,34.30
2018-11-20T10:06:32.424Z,43.10
2018-11-20T10:09:15.177Z,38.07
2018-11-20T10:12:06.216Z,33.10
2018-11-20T10:15:07.014Z,32.73
2018-11-20T10:18:02.094Z,38.23
2018-11-20T10:20:49.165Z,39.20
2018-11-20T10:23:49.791Z,40.60
2018-11-20T10:26:44.800Z,48.27
2018-11-20T10:29:47.952Z,33.77
2018-11-20T10:32:49.601Z,39.57
2018-11-20T10:35:53.818Z,51.70
2018-11-20T10:38:57.788Z,50.60
2018-11-20T10:41:44.885Z,39.93
2018-11-20T10:44:32.224Z,51.47
2018-11-20T10:47:32.896Z,49.13
2018-11-20T10:50:39.658Z,50.57
2018-11-20T10:53:27.062Z,45.30
2018-11-20T10:56:31.256Z,41.03
2018-11-20T10:59:18.238Z,50.30
2018-11-20T11:02:05.252Z,47.40
2018-11-20T11:04:52.247Z,50.80
2018-11-20T11:07:52.385Z,40.47
2018-11-20T11:10:57.228Z,33.67
2018-11-20T11:13:44.470Z,42.93
2018-11-20T11:16:41.974Z,45.50
2018-11-20T11:19:28.963Z,28.83
2018-11-20T11:22:17.356Z,36.03
2018-11-20T11:25:05.900Z,46.40
2018-11-20T11:27:54.899Z,44.53
2018-11-20T11:30:58.276Z,50.90
2018-11-20T11:33:41.255Z,49.33
2018-11-20T11:36:32.596Z,46.30
2018-11-20T11:39:12.036Z,34.97
2018-11-20T11:41:50.543Z,49.53
2018-11-20T11:44:37.148Z,39.83
2018-11-20T11:47:37.636Z,43.97
2018-11-20T11:50:28.962Z,43.97
2018-11-20T11:53:16.250Z,30.70
2018-11-20T11:56:03.727Z,32.60
2018-11-20T11:58:52.084Z,46.47
2018-11-20T12:04:35.574Z,36.60
2018-11-20T12:07:20.661Z,40.57
2018-11-20T12:10:07.771Z,29.57
2018-11-20T12:12:56.237Z,37.23
2018-11-20T12:15:53.836Z,25.70
2018-11-20T12:18:42.212Z,36.77
2018-11-20T12:21:21.330Z,28.60
2018-11-20T12:24:30.265Z,32.57
2018-11-20T12:27:22.427Z,44.03
2018-11-20T12:30:10.781Z,33.47
2018-11-20T12:33:14.756Z,40.57
2018-11-20T12:36:14.108Z,31.73
2018-11-20T12:39:19.848Z,48.93
2018-11-20T12:42:04.950Z,43.37
2018-11-20T12:45:00.743Z,31.10
2018-11-20T12:47:51.750Z,41.43
2018-11-20T12:50:39.405Z,40.83
2018-11-20T12:53:27.834Z,36.20
2018-11-20T12:56:19.531Z,41.83
2018-11-20T12:59:20.036Z,49.20
2018-11-20T13:02:10.569Z,43.67
2018-11-20T13:04:58.999Z,40.40
2018-11-20T13:07:56.464Z,36.23
2018-11-20T13:10:50.698Z,45.40
2018-11-20T13:13:42.016Z,29.20
2018-11-20T13:16:42.348Z,40.87
2018-11-20T13:19:43.334Z,40.43
2018-11-20T13:22:33.425Z,43.67
2018-11-20T13:25:18.309Z,43.63
2018-11-20T13:28:06.669Z,43.10
2018-11-20T13:31:01.102Z,40.63
2018-11-20T13:33:52.255Z,35.30
2018-11-20T13:36:49.424Z,35.03
2018-11-20T13:39:37.001Z,43.67
2018-11-20T13:42:37.281Z,39.40
2018-11-20T13:45:23.428Z,41.23
2018-11-20T13:48:20.115Z,40.50
2018-11-20T13:51:20.906Z,39.87
2018-11-20T13:54:14.723Z,44.83
2018-11-20T13:57:01.666Z,40.43
2018-11-20T13:59:48.768Z,36.53
2018-11-20T14:02:49.570Z,36.00
2018-11-20T14:05:50.202Z,41.73
2018-11-20T14:08:37.676Z,47.50
2018-11-20T14:11:24.418Z,42.87
2018-11-20T14:14:15.798Z,49.40
2018-11-20T14:17:08.642Z,45.63
2018-11-20T14:19:54.274Z,46.10
2018-11-20T14:22:46.047Z,48.70
2018-11-20T14:25:59.577Z,43.40
2018-11-20T14:28:38.101Z,46.47
2018-11-20T14:31:29.648Z,34.20
2018-11-20T14:34:16.712Z,46.97
2018-11-20T14:37:17.587Z,49.97
2018-11-20T14:40:05.929Z,49.60
2018-11-20T14:42:53.201Z,30.97
2018-11-20T14:45:56.661Z,43.10
2018-11-20T14:48:50.765Z,41.70
2018-11-20T14:51:36.155Z,31.70
2018-11-20T14:54:31.720Z,43.17
2018-11-20T14:57:18.895Z,49.27
2018-11-20T15:00:22.549Z,47.23
2018-11-20T15:03:19.911Z,38.93
2018-11-20T15:06:07.577Z,28.57
2018-11-20T15:09:01.979Z,36.57
2018-11-20T15:11:49.051Z,48.27
2018-11-20T15:14:32.447Z,44.00
2018-11-20T15:17:20.989Z,32.10
2018-11-20T15:20:08.036Z,39.80
2018-11-20T15:23:14.704Z,37.77
2018-11-20T15:26:05.583Z,50.30
2018-11-20T15:28:56.910Z,46.23
2018-11-20T15:31:44.137Z,51.63
2018-11-20T15:34:41.612Z,39.30
2018-11-20T15:37:32.876Z,42.13
2018-11-20T15:40:24.608Z,46.10
2018-11-20T15:43:11.018Z,41.67
2018-11-20T15:45:56.174Z,42.87
2018-11-20T15:48:53.617Z,57.93
2018-11-20T15:51:40.880Z,43.70
2018-11-20T15:54:35.146Z,54.67
2018-11-20T15:57:35.694Z,54.33
2018-11-20T16:00:23.923Z,44.73
2018-11-20T16:03:16.095Z,61.27
2018-11-20T16:06:07.586Z,59.40
2018-11-20T16:08:54.273Z,51.53
2018-11-20T16:11:41.321Z,52.63
2018-11-20T16:14:39.640Z,35.63
2018-11-20T16:17:26.557Z,49.97
2018-11-20T16:20:12.523Z,40.67
2018-11-20T16:22:59.843Z,61.67
2018-11-20T16:25:54.891Z,49.20
2018-11-20T16:28:43.270Z,53.17
2018-11-20T16:31:32.573Z,47.93
2018-11-20T16:34:13.020Z,55.83
2018-11-20T16:36:56.705Z,60.50
2018-11-20T16:39:45.127Z,59.53
2018-11-20T16:42:32.846Z,49.93
2018-11-20T16:45:20.102Z,59.47
2018-11-20T16:48:11.571Z,64.67
2018-11-20T16:51:03.034Z,60.03
2018-11-20T16:53:44.841Z,48.83
2018-11-20T16:56:42.912Z,48.93
2018-11-20T16:59:40.220Z,62.50
2018-11-20T17:02:34.333Z,57.13
2018-11-20T17:05:25.743Z,64.87
2018-11-20T17:08:32.396Z,70.27
2018-11-20T17:11:14.215Z,70.53
2018-11-20T17:14:01.446Z,56.20
2018-11-20T17:16:50.106Z,76.00
2018-11-20T17:19:38.661Z,65.93
2018-11-20T17:22:26.851Z,58.73
2018-11-20T17:25:13.722Z,56.07
2018-11-20T17:28:05.018Z,68.87
2018-11-20T17:30:56.039Z,70.37
2018-11-20T17:33:59.342Z,64.83
2018-11-20T17:37:03.302Z,51.07
2018-11-20T17:39:50.496Z,66.20
2018-11-20T17:42:53.560Z,66.43
2018-11-20T17:45:40.332Z,73.00
2018-11-20T17:48:27.513Z,63.33
2018-11-20T17:51:27.789Z,71.27
2018-11-20T17:54:07.092Z,59.00
2018-11-20T17:56:53.721Z,53.70
2018-11-20T17:59:31.931Z,78.57
2018-11-20T18:02:35.940Z,61.33
2018-11-20T18:05:36.589Z,58.13
2018-11-20T18:08:32.614Z,62.97
2018-11-20T18:11:30.607Z,60.50
2018-11-20T18:14:06.927Z,67.70
2018-11-20T18:16:58.039Z,66.30
2018-11-20T18:19:50.254Z,68.67
2018-11-20T18:22:47.706Z,53.77
2018-11-20T18:25:41.964Z,60.37
2018-11-20T18:28:36.137Z,67.10
2018-11-20T18:31:27.591Z,74.03
2018-11-20T18:34:28.536Z,42.07
2018-11-20T18:37:16.285Z,62.13
2018-11-20T18:40:10.830Z,59.67
2018-11-20T18:43:11.646Z,66.33
2018-11-20T18:45:57.984Z,52.73
2018-11-20T18:48:46.695Z,56.27
2018-11-20T18:51:26.928Z,72.90
2018-11-20T18:54:10.673Z,70.20
2018-11-20T18:57:05.167Z,71.70
2018-11-20T18:59:59.096Z,63.37
2018-11-20T19:03:41.782Z,45.53
2018-11-20T19:06:32.446Z,55.40
2018-11-20T19:09:26.291Z,64.57
2018-11-20T19:12:08.470Z,65.83
2018-11-20T19:14:55.940Z,65.27
2018-11-20T19:17:46.635Z,60.90
2018-11-20T19:20:23.281Z,64.23
2018-11-20T19:23:15.461Z,67.90
2018-11-20T19:26:01.693Z,62.40
2018-11-20T19:28:45.805Z,76.60
2018-11-20T19:31:53.272Z,59.87
2018-11-20T19:34:32.190Z,62.40
2018-11-20T19:37:25.418Z,74.77
2018-11-20T19:40:28.401Z,71.10
2018-11-20T19:43:16.520Z,60.90
2018-11-20T19:46:07.175Z,52.70
2018-11-20T19:48:55.037Z,65.83
2018-11-20T19:52:01.548Z,72.20
2018-11-20T19:54:52.133Z,75.40
2018-11-20T19:57:38.327Z,83.50
2018-11-20T20:00:37.734Z,75.83
2018-11-20T20:03:28.323Z,74.40
2018-11-20T20:06:18.557Z,69.90
2018-11-20T20:09:09.500Z,89.53
2018-11-20T20:11:57.378Z,67.00
2018-11-20T20:14:50.650Z,84.20
2018-11-20T20:17:36.652Z,60.10
2018-11-20T20:20:33.435Z,71.97
2018-11-20T20:23:19.607Z,64.87
2018-11-20T20:26:13.211Z,77.33
2018-11-20T20:29:03.704Z,72.00
2018-11-20T20:31:43.616Z,66.57
2018-11-20T20:34:31.972Z,65.50
2018-11-20T20:37:25.321Z,71.03
2018-11-20T20:40:11.367Z,81.50
2018-11-20T20:42:57.263Z,58.57
2018-11-20T20:45:41.900Z,63.97
2018-11-20T20:48:30.413Z,75.43
2018-11-20T20:51:18.119Z,58.27
2018-11-20T20:54:18.423Z,73.23
2018-11-20T20:57:04.495Z,68.10
2018-11-20T21:00:06.878Z,69.87
2018-11-20T21:02:58.040Z,64.30
2018-11-20T21:05:45.645Z,64.30
2018-11-20T21:08:36.513Z,67.13
2018-11-20T21:11:22.778Z,67.47
2018-11-20T21:14:12.945Z,59.77
2018-11-20T21:16:58.806Z,70.70
2018-11-20T21:20:01.717Z,66.50
2018-11-20T21:22:47.917Z,68.47
2018-11-20T21:25:34.339Z,67.77
2018-11-20T21:28:13.613Z,62.77
2018-11-20T21:31:05.205Z,71.10
2018-11-20T21:33:51.513Z,53.07
2018-11-20T21:36:51.477Z,63.77
2018-11-20T21:39:47.998Z,55.30
2018-11-20T21:42:41.843Z,36.07
2018-11-20T21:45:27.607Z,63.17
2018-11-20T21:48:17.527Z,59.67
2018-11-20T21:51:06.228Z,54.08
2018-11-20T21:53:44.434Z,58.63
2018-11-20T21:56:43.702Z,64.47
2018-11-20T21:59:41.250Z,63.00
2018-11-20T22:02:27.254Z,61.57
2018-11-20T22:05:13.240Z,59.60
2018-11-20T22:08:00.903Z,58.43
2018-11-20T22:10:54.264Z,63.40
2018-11-20T22:13:54.069Z,57.63
2018-11-20T22:16:40.127Z,47.77
2018-11-20T22:19:39.264Z,56.77
2018-11-20T22:22:32.441Z,59.70
2018-11-20T22:25:22.921Z,60.77
2018-11-20T22:28:18.912Z,60.43
2018-11-20T22:30:54.183Z,59.37
2018-11-20T22:33:50.620Z,58.70
2018-11-20T22:36:44.750Z,57.50
2018-11-20T22:39:47.149Z,52.00
2018-11-20T22:42:53.101Z,60.67
2018-11-20T22:45:41.141Z,50.67
2018-11-20T22:48:40.664Z,38.17
2018-11-20T22:51:31.135Z,53.05
2018-11-20T22:54:17.075Z,57.47
2018-11-20T22:57:02.921Z,57.40
2018-11-20T22:59:49.186Z,61.87
2018-11-20T23:02:51.682Z,56.93
2018-11-20T23:05:36.289Z,54.53
2018-11-20T23:08:05.005Z,57.67
2018-11-20T23:10:33.473Z,51.33
2018-11-20T23:13:01.973Z,56.63
2018-11-20T23:15:30.435Z,64.83
2018-11-20T23:17:59.037Z,62.10
2018-11-20T23:20:27.512Z,54.90
2018-11-20T23:22:56.070Z,64.73
2018-11-20T23:25:24.963Z,67.73
2018-11-20T23:27:53.402Z,55.03
2018-11-20T23:30:21.924Z,61.57
2018-11-20T23:32:50.422Z,49.43
2018-11-20T23:35:18.911Z,60.70
2018-11-20T23:37:47.584Z,66.30
2018-11-20T23:40:16.232Z,58.10
2018-11-20T23:42:44.736Z,59.70
2018-11-20T23:45:14.742Z,61.50
2018-11-20T23:47:43.192Z,46.83
2018-11-20T23:50:13.330Z,44.27
2018-11-20T23:52:42.580Z,65.40
2018-11-20T23:55:12.916Z,60.70
2018-11-20T23:57:41.649Z,60.70
